Time;durP1;ratioP1;P1;durP2;ratioP2;P2;SDS_P1;SDS_P2;PMS_P1;PMS_P2;Temp;Humidity;BMP_temperature;BMP_pressure;BME280_temperature;BME280_humidity;BME280_pressure;Samples;Min_cycle;Max_cycle;Signal;HPM_P1;HPM_P2
2023/10/26 00:00:41;;;;;;;;;1.20;1.20;;;;;19.31;54.66;99588.66;1959303;29;2722198;-70
2023/10/26 00:01:52;;;;;;;;;5.00;3.00;;;;;19.31;54.80;99591.31;1933083;29;2748179;-70
2023/10/26 00:03:03;;;;;;;;;3.00;2.00;;;;;19.32;54.96;99589.50;1943541;29;2750297;-70
2023/10/26 00:04:14;;;;;;;;;1.50;1.50;;;;;19.32;54.74;99587.69;1956895;29;2744024;-70
2023/10/26 00:05:28;;;;;;;;;4.50;4.00;;;;;19.32;54.83;99586.84;1958697;29;2740936;-70
2023/10/26 00:06:42;;;;;;;;;4.33;3.33;;;;;19.31;55.16;99578.00;1937255;29;2739854;-69
2023/10/26 00:07:52;;;;;;;;;6.33;3.00;;;;;19.31;55.13;99572.66;1912531;29;2748286;-70
2023/10/26 00:09:03;;;;;;;;;3.00;3.00;;;;;19.31;54.68;99570.00;1957961;29;2746188;-70
2023/10/26 00:10:14;;;;;;;;;3.00;3.00;;;;;19.30;55.12;99573.66;1912115;29;2739857;-70
2023/10/26 00:11:25;;;;;;;;;3.00;3.00;;;;;19.30;54.84;99576.34;1958744;29;2733604;-70
2023/10/26 00:12:35;;;;;;;;;5.00;3.33;;;;;19.31;54.64;99569.19;1915728;29;2753422;-70
2023/10/26 00:13:46;;;;;;;;;4.33;4.00;;;;;19.30;55.04;99568.34;1941698;29;2754552;-70
2023/10/26 00:14:58;;;;;;;;;3.67;3.67;;;;;19.30;54.90;99563.00;1947081;29;2750353;-70
2023/10/26 00:16:09;;;;;;;;;4.33;3.00;;;;;19.28;55.29;99562.31;1934075;29;2748195;-70
2023/10/26 00:17:19;;;;;;;;;3.00;3.00;;;;;19.29;54.76;99565.78;1941804;29;2746217;-70
2023/10/26 00:18:30;;;;;;;;;3.00;3.00;;;;;19.29;55.10;99571.97;1953451;29;2744013;-70
2023/10/26 00:19:42;;;;;;;;;3.25;2.75;;;;;19.29;54.79;99566.63;1964023;29;2733597;-70
2023/10/26 00:20:57;;;;;;;;;3.50;3.50;;;;;19.29;54.81;99561.31;1959913;29;2735682;-70
2023/10/26 00:22:10;;;;;;;;;3.00;3.00;;;;;19.29;54.60;99556.00;1936978;29;2747211;-70
2023/10/26 00:23:24;;;;;;;;;1.67;1.67;;;;;19.29;55.13;99560.47;1936903;29;2746096;-70
2023/10/26 00:24:37;;;;;;;;;3.00;3.00;;;;;19.28;54.74;99556.97;1943427;29;2741934;-70
2023/10/26 00:25:50;;;;;;;;;3.00;2.50;;;;;19.28;54.75;99556.97;1943062;29;2731573;-70
2023/10/26 00:27:04;;;;;;;;;3.50;3.00;;;;;19.28;54.92;99554.31;1934931;29;2736732;-70
2023/10/26 00:28:17;;;;;;;;;2.50;2.50;;;;;19.28;54.60;99554.31;1935858;29;2728385;-70
2023/10/26 00:29:27;;;;;;;;;4.00;3.00;;;;;19.28;54.90;99554.31;1911350;29;2737879;-70
2023/10/26 00:30:39;;;;;;;;;3.00;3.00;;;;;19.29;54.76;99558.66;1957380;29;2741953;-70
2023/10/26 00:31:49;;;;;;;;;3.67;3.00;;;;;19.28;54.74;99551.66;1911943;29;2744020;-70
2023/10/26 00:33:00;;;;;;;;;2.67;2.67;;;;;19.29;54.71;99555.13;1950270;29;2736791;-70
2023/10/26 00:34:11;;;;;;;;;2.00;2.00;;;;;19.28;54.65;99549.00;1957641;29;2741929;-70
2023/10/26 00:35:24;;;;;;;;;6.17;3.00;;;;;19.28;55.01;99551.66;1937751;29;2736777;-70
2023/10/26 00:36:34;;;;;;;;;4.33;2.00;;;;;19.28;54.62;99549.00;1911169;29;2738826;-70
2023/10/26 00:37:45;;;;;;;;;6.67;4.00;;;;;19.28;55.06;99549.00;1950193;29;2746640;-70
2023/10/26 00:38:57;;;;;;;;;2.25;2.25;;;;;19.27;54.59;99549.97;1958540;29;2739882;-70
2023/10/26 00:40:08;;;;;;;;;3.00;3.00;;;;;19.28;54.81;99546.31;1934315;29;2750308;-70
2023/10/26 00:41:21;;;;;;;;;2.00;2.00;;;;;19.27;54.87;99544.63;1959564;29;2731576;-69
2023/10/26 00:42:31;;;;;;;;;3.33;3.33;;;;;19.28;55.06;99537.50;1914368;29;2738236;-70
2023/10/26 00:43:42;;;;;;;;;2.00;2.00;;;;;19.28;54.44;99537.50;1950195;29;2747231;-70
2023/10/26 00:44:56;;;;;;;;;3.20;2.60;;;;;19.27;54.82;99536.63;1958056;29;2736232;-70
2023/10/26 00:46:11;;;;;;;;;2.17;2.17;;;;;19.27;54.55;99533.97;1959652;29;2731899;-70
2023/10/26 00:47:25;;;;;;;;;3.00;3.00;;;;;19.28;54.74;99532.16;1936033;29;2738138;-70
2023/10/26 00:48:36;;;;;;;;;3.00;2.33;;;;;19.27;54.60;99531.31;1913394;29;2733600;-70
2023/10/26 00:49:47;;;;;;;;;4.00;4.00;;;;;19.27;54.85;99530.47;1947952;29;2746106;-70
2023/10/26 00:50:58;;;;;;;;;4.50;3.00;;;;;19.28;54.93;99529.50;1958282;29;2737782;-70
2023/10/26 00:52:11;;;;;;;;;3.67;3.00;;;;;19.27;54.96;99531.31;1934461;29;2739914;-69
2023/10/26 00:53:24;;;;;;;;;3.00;3.00;;;;;19.27;54.66;99538.44;1957674;29;2745050;-70
2023/10/26 00:54:41;;;;;;;;;2.50;2.00;;;;;19.26;54.94;99534.94;1936685;29;2737791;-70
2023/10/26 00:55:54;;;;;;;;;3.50;3.50;;;;;19.27;54.91;99527.81;1936858;29;2731513;-70
2023/10/26 00:57:09;;;;;;;;;3.00;3.00;;;;;19.27;55.01;99531.31;1937902;29;2729453;-70
2023/10/26 00:58:22;;;;;;;;;3.00;3.00;;;;;19.26;55.03;99532.28;1911929;29;2747137;-70
2023/10/26 00:59:33;;;;;;;;;4.00;4.00;;;;;19.27;54.82;99531.31;1933111;29;2750255;-70
2023/10/26 01:00:47;;;;;;;;;3.00;3.00;;;;;19.26;54.79;99532.28;1958773;29;2750270;-70
2023/10/26 01:02:00;;;;;;;;;5.67;4.00;;;;;19.28;54.85;99537.50;1911651;29;2754510;-70
2023/10/26 01:03:12;;;;;;;;;3.00;3.00;;;;;19.28;54.90;99532.16;1931836;29;2749225;-70
2023/10/26 01:04:22;;;;;;;;;4.00;4.00;;;;;19.28;54.74;99532.16;1934013;29;2754490;-70
2023/10/26 01:05:33;;;;;;;;;2.33;2.33;;;;;19.26;54.88;99534.94;1956541;29;2732563;-70
2023/10/26 01:06:44;;;;;;;;;3.00;3.00;;;;;19.27;55.08;99533.97;1904485;29;2750734;-69
2023/10/26 01:07:55;;;;;;;;;4.00;3.00;;;;;19.27;54.90;99533.97;1939301;29;2742978;-70
2023/10/26 01:09:08;;;;;;;;;3.75;3.75;;;;;19.28;55.06;99532.16;1958312;29;2740968;-70
2023/10/26 01:10:23;;;;;;;;;3.50;3.00;;;;;19.27;54.76;99528.66;1959499;29;2733617;-70
2023/10/26 01:11:34;;;;;;;;;4.67;3.00;;;;;19.27;55.07;99525.13;1911516;29;2748246;-70
2023/10/26 01:12:46;;;;;;;;;3.00;3.00;;;;;19.28;54.86;99527.69;1961075;29;2742959;-70
2023/10/26 01:13:56;;;;;;;;;3.00;3.00;;;;;19.27;54.84;99525.97;1911531;29;2747160;-69
2023/10/26 01:15:07;;;;;;;;;2.00;2.00;;;;;19.28;54.73;99530.34;1957867;29;2741950;-70
2023/10/26 01:16:19;;;;;;;;;3.00;3.00;;;;;19.29;54.66;99525.84;1934680;29;2744028;-70
2023/10/26 01:17:29;;;;;;;;;3.00;3.00;;;;;19.28;54.94;99525.03;1933523;29;2749244;-69
2023/10/26 01:18:40;;;;;;;;;3.00;3.00;;;;;19.28;54.94;99527.69;1940853;29;2744048;-70
2023/10/26 01:19:52;;;;;;;;;3.00;2.00;;;;;19.28;54.61;99527.69;1958537;29;2732558;-70
2023/10/26 01:21:05;;;;;;;;;3.67;3.50;;;;;19.28;55.07;99525.03;1958846;29;2740890;-69
2023/10/26 01:22:18;;;;;;;;;3.00;3.00;;;;;19.28;54.93;99527.69;1936469;29;2736725;-70
2023/10/26 01:23:32;;;;;;;;;4.50;2.17;;;;;19.29;55.13;99525.84;1935708;29;2754453;-70
2023/10/26 01:24:45;;;;;;;;;2.00;2.00;;;;;19.29;54.83;99521.34;1938973;29;2724218;-70
2023/10/26 01:25:58;;;;;;;;;3.00;2.67;;;;;19.28;54.64;99521.50;1936375;29;2732559;-70
2023/10/26 01:27:11;;;;;;;;;2.17;2.17;;;;;19.28;55.16;99519.69;1936164;29;2728409;-70
2023/10/26 01:28:23;;;;;;;;;4.00;3.00;;;;;19.29;54.97;99520.50;1911027;29;2733639;-69
2023/10/26 01:29:36;;;;;;;;;3.33;3.00;;;;;19.28;54.94;99517.03;1958567;29;2732565;-69
2023/10/26 01:30:49;;;;;;;;;3.33;3.33;;;;;19.29;55.21;99517.84;1936518;29;2732567;-70
2023/10/26 01:32:03;;;;;;;;;1.50;0.83;;;;;19.29;55.00;99515.19;1938575;29;2725291;-70
2023/10/26 01:33:16;;;;;;;;;2.17;2.17;;;;;19.28;54.97;99514.38;1936432;29;2740876;-70
2023/10/26 01:34:32;;;;;;;;;2.83;2.83;;;;;19.28;55.24;99509.03;1935648;29;2729444;-70
2023/10/26 01:35:44;;;;;;;;;3.00;3.00;;;;;19.29;55.10;99513.38;1912302;29;2743015;-70
2023/10/26 01:36:54;;;;;;;;;3.00;2.67;;;;;19.28;54.98;99508.19;1934049;29;2738906;-69
2023/10/26 01:38:05;;;;;;;;;2.00;2.00;;;;;19.28;54.85;99505.53;1958152;29;2737783;-69
2023/10/26 01:39:19;;;;;;;;;1.33;1.00;;;;;19.27;55.08;99510.00;1937197;29;2723172;-70
2023/10/26 01:40:33;;;;;;;;;2.33;2.33;;;;;19.30;54.86;99503.56;1937162;29;2729466;-69
2023/10/26 01:41:47;;;;;;;;;3.50;2.67;;;;;19.28;55.04;99502.88;1937176;29;2733609;-70
2023/10/26 01:43:00;;;;;;;;;2.00;2.00;;;;;19.28;55.06;99501.03;1936916;29;2732589;-69
2023/10/26 01:44:13;;;;;;;;;3.50;2.17;;;;;19.28;54.85;99498.38;1936427;29;2747563;-70
2023/10/26 01:45:26;;;;;;;;;3.83;3.83;;;;;19.29;54.73;99508.03;1937916;29;2744053;-70
2023/10/26 01:46:37;;;;;;;;;4.00;2.00;;;;;19.28;54.80;99489.53;1912640;29;2752884;-70
2023/10/26 01:47:48;;;;;;;;;3.00;2.00;;;;;19.27;54.96;99499.34;1955893;29;2745067;-70
2023/10/26 01:49:01;;;;;;;;;2.83;2.83;;;;;19.28;54.88;99501.03;1957741;29;2737883;-70
2023/10/26 01:50:15;;;;;;;;;3.00;2.17;;;;;19.27;54.76;99491.34;1937219;29;2734664;-70
2023/10/26 01:51:28;;;;;;;;;2.50;2.50;;;;;19.27;55.24;99491.34;1936339;29;2754818;-70
2023/10/26 01:52:39;;;;;;;;;4.67;3.00;;;;;19.27;54.78;99491.34;1911678;29;2752360;-70
2023/10/26 01:53:50;;;;;;;;;6.00;2.33;;;;;19.28;54.88;99490.38;1949361;29;2738888;-70
2023/10/26 01:55:00;;;;;;;;;2.33;2.33;;;;;19.28;54.99;99490.38;1946506;29;2749220;-70
2023/10/26 01:56:11;;;;;;;;;4.33;2.33;;;;;19.28;54.94;99486.88;1946006;29;2747607;-70
2023/10/26 01:57:23;;;;;;;;;3.75;2.25;;;;;19.28;54.95;99489.53;1957057;29;2726297;-69
2023/10/26 01:58:36;;;;;;;;;3.00;3.00;;;;;19.28;55.13;99486.88;1957441;29;2736721;-70
2023/10/26 01:59:47;;;;;;;;;4.00;2.00;;;;;19.28;54.78;99487.72;1908810;29;2751325;-70
2023/10/26 02:00:58;;;;;;;;;3.00;2.33;;;;;19.28;55.06;99490.38;1948714;29;2746124;-70
2023/10/26 02:02:09;;;;;;;;;2.25;2.00;;;;;19.27;54.90;99486.03;1956961;29;2726324;-70
2023/10/26 02:03:23;;;;;;;;;3.00;3.00;;;;;19.28;55.14;99485.06;1958265;29;2737935;-70
2023/10/26 02:04:33;;;;;;;;;2.00;2.00;;;;;19.28;54.79;99484.22;1912928;29;2744005;-70
2023/10/26 02:05:45;;;;;;;;;3.33;3.00;;;;;19.28;54.81;99485.06;1957445;29;2741941;-70
2023/10/26 02:06:55;;;;;;;;;3.00;2.00;;;;;19.28;54.81;99479.75;1912965;29;2750247;-70
2023/10/26 02:08:06;;;;;;;;;1.00;1.00;;;;;19.28;54.80;99478.88;1949808;29;2731513;-70
2023/10/26 02:09:17;;;;;;;;;2.00;2.00;;;;;19.28;54.98;99479.75;1934202;29;2742016;-70
2023/10/26 02:10:30;;;;;;;;;2.00;2.00;;;;;19.27;54.68;99474.53;1954623;29;2751334;-70
2023/10/26 02:11:43;;;;;;;;;3.83;2.00;;;;;19.28;54.94;99473.56;1958388;29;2742988;-70
2023/10/26 02:12:57;;;;;;;;;3.00;3.00;;;;;19.28;55.27;99476.22;1942124;29;2733615;-70
2023/10/26 02:14:10;;;;;;;;;2.67;2.50;;;;;19.28;55.10;99468.22;1943670;29;2736740;-70
2023/10/26 02:15:23;;;;;;;;;3.67;3.00;;;;;19.27;55.14;99467.38;1942281;29;2736761;-69
2023/10/26 02:16:37;;;;;;;;;2.00;2.00;;;;;19.27;55.32;99467.38;1936483;29;2741937;-70
2023/10/26 02:17:48;;;;;;;;;3.00;2.00;;;;;19.27;55.47;99467.38;1905949;29;2754981;-70
2023/10/26 02:19:01;;;;;;;;;3.67;3.00;;;;;19.27;54.54;99462.06;1958881;29;2741950;-70
2023/10/26 02:20:11;;;;;;;;;3.00;3.00;;;;;19.26;55.04;99457.69;1911498;29;2746104;-70
2023/10/26 02:21:22;;;;;;;;;3.00;1.00;;;;;19.27;55.15;99455.88;1958235;29;2739838;-69
2023/10/26 02:22:33;;;;;;;;;3.00;3.00;;;;;19.25;55.14;99448.03;1933739;29;2752433;-70
2023/10/26 02:23:44;;;;;;;;;2.00;2.00;;;;;19.26;54.93;99449.72;1957347;29;2744026;-70
2023/10/26 02:24:57;;;;;;;;;3.17;2.17;;;;;19.27;55.01;99450.56;1958679;29;2740888;-70
2023/10/26 02:26:11;;;;;;;;;3.17;3.17;;;;;19.26;55.06;99449.72;1936242;29;2740418;-69
2023/10/26 02:27:21;;;;;;;;;2.00;2.00;;;;;19.27;55.01;99451.41;1912065;29;2748190;-70
2023/10/26 02:28:32;;;;;;;;;2.00;2.00;;;;;19.26;55.14;99449.72;1957627;29;2737758;-69
2023/10/26 02:29:45;;;;;;;;;1.33;1.33;;;;;19.27;55.03;99438.09;1959123;29;2724237;-70
2023/10/26 02:31:00;;;;;;;;;2.50;2.50;;;;;19.27;54.96;99448.75;1936511;29;2735691;-70
2023/10/26 02:32:13;;;;;;;;;2.00;2.00;;;;;19.26;55.29;99443.56;1936285;29;2722171;-69
2023/10/26 02:33:26;;;;;;;;;2.00;2.00;;;;;19.25;55.25;99440.06;1935451;29;2750274;-70
2023/10/26 02:34:40;;;;;;;;;3.00;3.00;;;;;19.25;54.92;99437.38;1936732;29;2733603;-70
2023/10/26 02:35:53;;;;;;;;;2.00;2.00;;;;;19.26;54.97;99435.56;1937067;29;2744048;-70
2023/10/26 02:37:06;;;;;;;;;2.00;2.00;;;;;19.25;55.33;99437.38;1935021;29;2741368;-70
2023/10/26 02:38:16;;;;;;;;;3.33;2.00;;;;;19.27;55.12;99439.91;1911841;29;2752369;-70
2023/10/26 02:39:27;;;;;;;;;3.33;3.00;;;;;19.26;55.24;99436.38;1964253;29;2738824;-69
2023/10/26 02:40:41;;;;;;;;;2.00;2.00;;;;;19.25;55.11;99432.06;1965486;29;2733680;-70
2023/10/26 02:41:54;;;;;;;;;2.67;2.67;;;;;19.25;55.10;99426.72;1936422;29;2747148;-70
2023/10/26 02:43:07;;;;;;;;;4.17;2.00;;;;;19.27;54.95;99423.91;1942910;29;2749225;-70
2023/10/26 02:44:20;;;;;;;;;1.00;0.83;;;;;19.26;55.16;99430.25;1943336;29;2733621;-69
2023/10/26 02:45:34;;;;;;;;;2.50;1.00;;;;;19.26;55.01;99422.25;1936872;29;2737789;-69
2023/10/26 02:46:48;;;;;;;;;2.50;2.17;;;;;19.25;55.20;99413.41;1937744;29;2735671;-69
2023/10/26 02:47:59;;;;;;;;;2.00;2.00;;;;;19.25;55.17;99409.91;1910149;29;2733634;-69
2023/10/26 02:49:11;;;;;;;;;3.00;3.00;;;;;19.25;55.00;99416.09;1958514;29;2729453;-70
2023/10/26 02:50:25;;;;;;;;;1.67;1.67;;;;;19.25;55.46;99416.09;1929271;29;2733585;-69
2023/10/26 02:51:35;;;;;;;;;2.67;2.33;;;;;19.25;55.18;99416.09;1903895;29;2753491;-70
2023/10/26 02:52:46;;;;;;;;;1.00;1.00;;;;;19.26;54.87;99411.59;1964480;29;2727374;-69
2023/10/26 02:53:59;;;;;;;;;3.00;1.00;;;;;19.24;55.44;99403.72;1941443;29;2731528;-70
2023/10/26 02:55:12;;;;;;;;;3.50;2.00;;;;;19.25;55.26;99409.91;1936454;29;2744028;-69
2023/10/26 02:56:26;;;;;;;;;2.00;2.00;;;;;19.24;55.11;99403.72;1938028;29;2733611;-70
2023/10/26 02:57:39;;;;;;;;;1.50;1.50;;;;;19.25;55.24;99405.44;1935006;29;2731541;-70
2023/10/26 02:58:49;;;;;;;;;2.00;2.00;;;;;19.25;55.36;99407.25;1911132;29;2752432;-70
2023/10/26 03:00:00;;;;;;;;;2.67;1.33;;;;;19.26;55.38;99407.09;1957424;29;2728888;-70
2023/10/26 03:01:14;;;;;;;;;1.83;1.83;;;;;19.25;55.24;99397.44;1936044;29;2741969;-70
2023/10/26 03:02:27;;;;;;;;;1.67;1.67;;;;;19.25;54.92;99394.78;1936268;29;2729482;-70
2023/10/26 03:03:37;;;;;;;;;3.67;1.67;;;;;19.26;55.30;99391.13;1910141;29;2746481;-69
2023/10/26 03:04:48;;;;;;;;;3.00;1.00;;;;;19.25;55.04;99391.25;1957594;29;2741959;-70
2023/10/26 03:05:59;;;;;;;;;2.67;2.67;;;;;19.26;55.16;99385.78;1911586;29;2751316;-69
2023/10/26 03:07:13;;;;;;;;;4.00;1.00;;;;;19.27;55.23;99383.97;1958955;29;2725291;-70
2023/10/26 03:08:23;;;;;;;;;2.33;2.00;;;;;19.26;55.33;99377.78;1911716;29;2750288;-70
2023/10/26 03:09:34;;;;;;;;;4.00;2.00;;;;;19.26;55.33;99372.47;1956513;29;2748176;-70
2023/10/26 03:10:44;;;;;;;;;2.00;1.67;;;;;19.26;55.28;99383.13;1910898;29;2746140;-69
2023/10/26 03:11:55;;;;;;;;;1.00;1.00;;;;;19.26;55.07;99377.78;1956916;29;2733608;-70
2023/10/26 03:13:09;;;;;;;;;1.83;1.83;;;;;19.26;55.79;99374.31;1938372;29;2727342;-70
2023/10/26 03:14:22;;;;;;;;;2.50;2.50;;;;;19.26;55.69;99371.66;1937864;29;2731541;-70
2023/10/26 03:15:35;;;;;;;;;2.33;1.50;;;;;19.26;55.23;99355.66;1937694;29;2729468;-70
2023/10/26 03:16:47;;;;;;;;;1.33;1.33;;;;;19.26;55.60;99366.31;1913035;29;2741266;-70
2023/10/26 03:18:00;;;;;;;;;3.17;1.67;;;;;19.26;55.28;99363.66;1958596;29;2733610;-70
2023/10/26 03:19:13;;;;;;;;;2.50;2.00;;;;;19.26;55.23;99359.16;1937127;29;2739912;-70
2023/10/26 03:20:24;;;;;;;;;2.67;2.00;;;;;19.26;55.55;99359.16;1920356;29;2752393;-70
2023/10/26 03:21:35;;;;;;;;;1.33;1.33;;;;;19.26;55.42;99359.16;1965671;29;2726312;-70
2023/10/26 03:22:48;;;;;;;;;1.83;1.83;;;;;19.27;55.57;99358.19;1959385;29;2747169;-70
2023/10/26 03:24:02;;;;;;;;;1.33;1.33;;;;;19.27;55.23;99357.34;1937746;29;2726332;-70
2023/10/26 03:25:16;;;;;;;;;2.00;2.00;;;;;19.27;55.43;99357.34;1945265;29;2741964;-69
2023/10/26 03:26:30;;;;;;;;;1.50;1.50;;;;;19.27;55.42;99355.53;1943538;29;2730957;-70
2023/10/26 03:27:43;;;;;;;;;1.00;1.00;;;;;19.28;55.37;99354.56;1938952;29;2728790;-70
2023/10/26 03:28:53;;;;;;;;;2.00;2.00;;;;;19.27;55.54;99347.53;1912772;29;2739846;-70
2023/10/26 03:30:07;;;;;;;;;2.67;2.00;;;;;19.28;55.46;99348.38;1958058;29;2750282;-70
2023/10/26 03:31:20;;;;;;;;;1.33;1.33;;;;;19.28;55.63;99351.88;1960547;29;2721116;-70
2023/10/26 03:32:33;;;;;;;;;2.00;2.00;;;;;19.28;55.59;99341.22;1936764;29;2744038;-70
2023/10/26 03:33:46;;;;;;;;;2.00;2.00;;;;;19.28;55.33;99341.22;1937179;29;2737771;-70
2023/10/26 03:35:00;;;;;;;;;2.50;1.17;;;;;19.28;55.46;99346.56;1945579;29;2737762;-69
2023/10/26 03:36:15;;;;;;;;;3.33;2.00;;;;;19.28;55.53;99343.91;1942832;29;2741940;-70
2023/10/26 03:37:29;;;;;;;;;3.33;1.00;;;;;19.28;55.29;99338.56;1936705;29;2726313;-70
2023/10/26 03:38:44;;;;;;;;;2.67;1.33;;;;;19.29;55.33;99336.72;1954173;29;2726352;-69
2023/10/26 03:39:57;;;;;;;;;1.50;1.50;;;;;19.29;55.29;99339.38;1945215;29;2731534;-70
2023/10/26 03:41:10;;;;;;;;;2.00;2.00;;;;;19.29;55.34;99331.41;1942678;29;2741960;-70
2023/10/26 03:42:21;;;;;;;;;2.33;2.33;;;;;19.28;55.33;99333.25;1914096;29;2750296;-70
2023/10/26 03:43:32;;;;;;;;;2.00;2.00;;;;;19.28;55.54;99330.56;1959078;29;2741978;-70
2023/10/26 03:44:45;;;;;;;;;1.33;1.33;;;;;19.28;55.42;99341.22;1936667;29;2735700;-70
2023/10/26 03:45:58;;;;;;;;;2.00;1.33;;;;;19.29;55.45;99339.38;1937192;29;2736192;-70
2023/10/26 03:47:11;;;;;;;;;2.00;2.00;;;;;19.29;55.42;99336.72;1936577;29;2742017;-70
2023/10/26 03:48:24;;;;;;;;;1.00;1.00;;;;;19.29;55.46;99334.91;1938061;29;2719044;-69
2023/10/26 03:49:38;;;;;;;;;1.83;1.83;;;;;19.28;55.57;99333.25;1935884;29;2730475;-70
2023/10/26 03:50:48;;;;;;;;;2.33;2.33;;;;;19.29;55.57;99342.91;1913587;29;2754537;-69
2023/10/26 03:52:00;;;;;;;;;1.00;1.00;;;;;19.29;55.78;99337.56;1959519;29;2725308;-70
2023/10/26 03:53:13;;;;;;;;;2.00;2.00;;;;;19.28;55.49;99338.56;1959671;29;2735138;-70
2023/10/26 03:54:27;;;;;;;;;1.17;1.17;;;;;19.29;55.62;99345.56;1936875;29;2724226;-70
2023/10/26 03:55:40;;;;;;;;;1.00;1.00;;;;;19.27;55.73;99339.53;1943424;29;2729457;-70
2023/10/26 03:56:53;;;;;;;;;1.00;1.00;;;;;19.29;55.49;99339.38;1943947;29;2724249;-69
2023/10/26 03:58:06;;;;;;;;;1.33;1.33;;;;;19.29;55.41;99336.72;1938432;29;2724237;-70
2023/10/26 03:59:20;;;;;;;;;1.00;1.00;;;;;19.29;55.63;99339.38;1935133;29;2735695;-70
2023/10/26 04:00:33;;;;;;;;;2.00;2.00;;;;;19.29;55.48;99334.91;1938012;29;2738287;-70
2023/10/26 04:01:46;;;;;;;;;2.00;2.00;;;;;19.30;55.69;99330.41;1938131;29;2751310;-70
2023/10/26 04:02:59;;;;;;;;;1.00;1.00;;;;;19.30;55.73;99330.41;1937920;29;2719017;-69
2023/10/26 04:04:13;;;;;;;;;2.00;2.00;;;;;19.29;55.32;99342.03;1936793;29;2741933;-70
2023/10/26 04:05:26;;;;;;;;;0.50;0.50;;;;;19.31;55.59;99340.09;1937827;29;2725295;-70
2023/10/26 04:06:39;;;;;;;;;1.00;1.00;;;;;19.30;55.80;99341.91;1936650;29;2725284;-70
2023/10/26 04:07:54;;;;;;;;;1.67;1.00;;;;;19.30;55.64;99333.09;1936737;29;2737798;-70
2023/10/26 04:09:07;;;;;;;;;1.33;1.33;;;;;19.31;55.70;99340.91;1937768;29;2722167;-70
2023/10/26 04:10:20;;;;;;;;;1.17;1.17;;;;;19.31;55.75;99334.78;1944644;29;2731565;-70
2023/10/26 04:11:33;;;;;;;;;2.00;1.67;;;;;19.30;55.94;99331.28;1943869;29;2737786;-69
2023/10/26 04:12:46;;;;;;;;;2.67;1.33;;;;;19.31;55.84;99327.59;1942190;29;2729429;-70
2023/10/26 04:13:57;;;;;;;;;2.00;2.00;;;;;19.31;55.92;99332.13;1919022;29;2744069;-70
2023/10/26 04:15:11;;;;;;;;;2.00;2.00;;;;;19.31;55.74;99324.13;1959112;29;2750318;-70
2023/10/26 04:16:24;;;;;;;;;2.17;1.50;;;;;19.31;55.60;99319.63;1938332;29;2729453;-69
2023/10/26 04:17:38;;;;;;;;;1.00;1.00;;;;;19.30;55.84;99314.44;1937115;29;2732547;-70
2023/10/26 04:18:52;;;;;;;;;2.33;2.00;;;;;19.30;55.77;99325.94;1936364;29;2742016;-70
2023/10/26 04:20:07;;;;;;;;;2.33;0.67;;;;;19.30;55.52;99325.94;1938138;29;2727378;-69
2023/10/26 04:21:20;;;;;;;;;1.67;1.67;;;;;19.29;55.59;99326.91;1937591;29;2737783;-70
2023/10/26 04:22:33;;;;;;;;;1.00;1.00;;;;;19.31;55.80;99330.28;1936940;29;2729803;-70
2023/10/26 04:23:47;;;;;;;;;2.00;2.00;;;;;19.31;55.74;99329.44;1934814;29;2741944;-70
2023/10/26 04:25:00;;;;;;;;;3.17;1.67;;;;;19.30;55.83;99317.94;1935877;29;2748203;-70
2023/10/26 04:26:13;;;;;;;;;1.00;1.00;;;;;19.30;55.36;99314.44;1936870;29;2720075;-70
2023/10/26 04:27:26;;;;;;;;;2.00;2.00;;;;;19.30;55.43;99317.94;1943819;29;2745074;-70
2023/10/26 04:28:40;;;;;;;;;2.00;1.67;;;;;19.31;55.55;99313.47;1944214;29;2739854;-70
2023/10/26 04:29:53;;;;;;;;;1.33;1.00;;;;;19.30;55.61;99311.78;1937996;29;2724250;-70
2023/10/26 04:31:06;;;;;;;;;4.00;2.00;;;;;19.31;55.48;99319.63;1936789;29;2737774;-70
2023/10/26 04:32:20;;;;;;;;;1.00;1.00;;;;;19.31;55.38;99308.97;1938610;29;2736725;-70
2023/10/26 04:33:33;;;;;;;;;1.17;1.17;;;;;19.31;55.48;99311.63;1936625;29;2727378;-70
2023/10/26 04:34:46;;;;;;;;;3.00;1.83;;;;;19.32;55.78;99317.78;1943309;29;2744010;-70
2023/10/26 04:36:00;;;;;;;;;1.67;1.67;;;;;19.30;55.85;99309.97;1942831;29;2733651;-70
2023/10/26 04:37:14;;;;;;;;;2.67;2.67;;;;;19.31;55.99;99310.81;1935435;29;2735706;-70
2023/10/26 04:38:27;;;;;;;;;1.50;1.00;;;;;19.30;55.83;99307.28;1936845;29;2723184;-70
2023/10/26 04:39:41;;;;;;;;;2.00;2.00;;;;;19.31;55.91;99314.28;1910559;29;2753383;-69
2023/10/26 04:40:54;;;;;;;;;2.33;2.00;;;;;19.31;55.75;99303.63;1958567;29;2741952;-70
2023/10/26 04:42:07;;;;;;;;;2.17;1.33;;;;;19.31;55.95;99300.97;1945825;29;2737767;-70
2023/10/26 04:43:20;;;;;;;;;2.00;2.00;;;;;19.30;55.91;99301.97;1942166;29;2731581;-70
2023/10/26 04:44:34;;;;;;;;;1.00;1.00;;;;;19.31;55.77;99297.50;1935902;29;2727355;-70
2023/10/26 04:45:47;;;;;;;;;3.67;2.33;;;;;19.30;55.93;99291.31;1935739;29;2748179;-70
2023/10/26 04:47:01;;;;;;;;;2.67;2.67;;;;;19.31;55.59;99292.16;1937763;29;2735680;-70
2023/10/26 04:48:14;;;;;;;;;1.17;1.17;;;;;19.31;55.95;99292.16;1936671;29;2727391;-70
2023/10/26 04:49:28;;;;;;;;;1.33;1.33;;;;;19.32;55.88;99299.16;1937357;29;2725763;-70
2023/10/26 04:50:41;;;;;;;;;1.83;1.83;;;;;19.31;55.56;99295.63;1942675;29;2731518;-70
2023/10/26 04:51:54;;;;;;;;;1.17;1.17;;;;;19.32;56.11;99293.81;1936909;29;2730506;-70
2023/10/26 04:53:08;;;;;;;;;3.17;1.33;;;;;19.32;55.63;99283.16;1936147;29;2731537;-70
2023/10/26 04:54:22;;;;;;;;;2.00;2.00;;;;;19.32;55.70;99288.50;1936271;29;2737763;-70
2023/10/26 04:55:35;;;;;;;;;0.50;0.50;;;;;19.32;55.51;99278.69;1937545;29;2722709;-70
2023/10/26 04:56:48;;;;;;;;;2.17;2.17;;;;;19.32;56.06;99278.69;1943563;29;2750250;-70
2023/10/26 04:58:02;;;;;;;;;1.17;1.00;;;;;19.32;56.20;99280.50;1943825;29;2725264;-70
2023/10/26 04:59:16;;;;;;;;;2.33;1.50;;;;;19.29;55.64;99284.28;1959061;29;2730495;-70
2023/10/26 05:00:30;;;;;;;;;3.17;1.83;;;;;19.30;55.91;99283.31;1937023;29;2741925;-70
2023/10/26 05:01:43;;;;;;;;;2.00;1.50;;;;;19.30;55.89;99277.16;1937943;29;2726349;-70
2023/10/26 05:02:57;;;;;;;;;1.00;1.00;;;;;19.31;56.02;99282.31;1929889;29;2725293;-70
2023/10/26 05:04:10;;;;;;;;;1.50;1.50;;;;;19.30;56.08;99291.31;1932765;29;2737774;-69
2023/10/26 05:05:23;;;;;;;;;2.50;2.50;;;;;19.30;56.23;99286.00;1945229;29;2724260;-70
2023/10/26 05:06:37;;;;;;;;;2.00;2.00;;;;;19.29;56.05;99284.28;1942572;29;2746143;-70
2023/10/26 05:07:50;;;;;;;;;2.00;2.00;;;;;19.30;55.99;99280.66;1938247;29;2739862;-70
2023/10/26 05:09:00;;;;;;;;;2.00;2.00;;;;;19.31;56.16;99278.84;1910202;29;2741936;-69
2023/10/26 05:10:12;;;;;;;;;3.00;2.00;;;;;19.29;56.30;99276.31;1957314;29;2742008;-69
2023/10/26 05:11:25;;;;;;;;;2.17;2.17;;;;;19.30;56.33;99278.00;1964758;29;2747171;-69
2023/10/26 05:12:38;;;;;;;;;1.17;1.17;;;;;19.31;56.00;99284.16;1940693;29;2737781;-70
2023/10/26 05:13:53;;;;;;;;;2.00;2.00;;;;;19.30;56.17;99270.00;1957937;29;2742955;-70
2023/10/26 05:15:08;;;;;;;;;0.67;0.67;;;;;19.31;56.10;99266.34;1936636;29;2723192;-70
2023/10/26 05:16:21;;;;;;;;;1.83;1.83;;;;;19.31;56.28;99257.53;1939903;29;2736718;-70
2023/10/26 05:17:38;;;;;;;;;2.33;1.00;;;;;19.32;56.11;99253.88;1946971;29;2733656;-69
2023/10/26 05:18:51;;;;;;;;;1.67;1.67;;;;;19.32;55.93;99253.88;1949661;29;2723185;-70
2023/10/26 05:20:05;;;;;;;;;2.00;1.00;;;;;19.32;56.07;99254.72;1940854;29;2727398;-70
2023/10/26 05:21:18;;;;;;;;;0.00;0.00;;;;;19.32;56.14;99252.06;1944370;29;2725330;-70
2023/10/26 05:22:34;;;;;;;;;2.00;2.00;;;;;19.33;56.31;99245.72;1942758;29;2744025;-69
2023/10/26 05:23:47;;;;;;;;;2.00;2.00;;;;;19.32;56.14;99246.72;1946590;29;2742432;-70
2023/10/26 05:25:04;;;;;;;;;1.33;1.33;;;;;19.34;56.15;99255.41;1943943;29;2731535;-70
2023/10/26 05:26:17;;;;;;;;;2.67;1.50;;;;;19.34;55.92;99255.41;1936726;29;2735702;-70
2023/10/26 05:27:32;;;;;;;;;1.83;1.00;;;;;19.34;56.28;99243.91;1936762;29;2739882;-70
2023/10/26 05:28:47;;;;;;;;;5.33;2.67;;;;;19.34;56.41;99251.91;1937021;29;2739873;-70
2023/10/26 05:30:00;;;;;;;;;3.00;1.67;;;;;19.34;56.40;99239.44;1935907;29;2739904;-70
2023/10/26 05:31:13;;;;;;;;;2.00;2.00;;;;;19.36;56.30;99251.78;1936343;29;2746194;-70
2023/10/26 05:32:26;;;;;;;;;1.17;1.17;;;;;19.36;56.62;99249.91;1935507;29;2733644;-70
2023/10/26 05:33:40;;;;;;;;;2.00;2.00;;;;;19.36;56.47;99246.44;1936537;29;2744026;-70